sensor_id;sensor_type;location;lat;lon;timestamp;P1;durP1;ratioP1;P2;durP2;ratioP2
6422;SDS011;3244;42.708;23.288;2024-01-15T00:00:12;153.82;;;58.35;;
6422;SDS011;3244;42.708;23.288;2024-01-15T00:02:39;151.18;;;59.92;;
6422;SDS011;3244;42.708;23.288;2024-01-15T00:05:07;128.70;;;53.25;;
6422;SDS011;3244;42.708;23.288;2024-01-15T00:07:34;127.93;;;53.20;;
6422;SDS011;3244;42.708;23.288;2024-01-15T00:10:01;133.32;;;55.67;;
6422;SDS011;3244;42.708;23.288;2024-01-15T00:12:28;144.50;;;56.90;;
6422;SDS011;3244;42.708;23.288;2024-01-15T00:14:54;144.60;;;59.13;;
6422;SDS011;3244;42.708;23.288;2024-01-15T00:17:21;143.52;;;60.20;;
6422;SDS011;3244;42.708;23.288;2024-01-15T00:19:48;155.38;;;58.25;;
6422;SDS011;3244;42.708;23.288;2024-01-15T00:22:15;150.02;;;56.88;;
6422;SDS011;3244;42.708;23.288;2024-01-15T00:24:42;157.00;;;61.75;;
6422;SDS011;3244;42.708;23.288;2024-01-15T00:27:09;150.52;;;55.75;;
6422;SDS011;3244;42.708;23.288;2024-01-15T00:29:35;145.55;;;61.03;;
6422;SDS011;3244;42.708;23.288;2024-01-15T00:32:02;150.32;;;59.88;;
6422;SDS011;3244;42.708;23.288;2024-01-15T00:34:29;150.70;;;59.28;;
6422;SDS011;3244;42.708;23.288;2024-01-15T00:36:56;160.38;;;61.20;;
6422;SDS011;3244;42.708;23.288;2024-01-15T00:39:23;156.68;;;61.47;;
6422;SDS011;3244;42.708;23.288;2024-01-15T00:41:51;164.95;;;60.55;;
6422;SDS011;3244;42.708;23.288;2024-01-15T00:44:17;142.88;;;57.38;;
6422;SDS011;3244;42.708;23.288;2024-01-15T00:46:44;136.75;;;56.10;;
6422;SDS011;3244;42.708;23.288;2024-01-15T00:49:11;143.35;;;54.22;;
6422;SDS011;3244;42.708;23.288;2024-01-15T00:51:38;115.70;;;50.92;;
6422;SDS011;3244;42.708;23.288;2024-01-15T00:54:05;129.75;;;51.58;;
6422;SDS011;3244;42.708;23.288;2024-01-15T00:56:33;130.18;;;52.22;;
6422;SDS011;3244;42.708;23.288;2024-01-15T00:59:00;127.88;;;50.60;;
6422;SDS011;3244;42.708;23.288;2024-01-15T01:01:27;111.60;;;47.85;;
6422;SDS011;3244;42.708;23.288;2024-01-15T01:03:53;124.43;;;51.60;;
6422;SDS011;3244;42.708;23.288;2024-01-15T01:06:20;132.50;;;53.93;;
6422;SDS011;3244;42.708;23.288;2024-01-15T01:08:46;138.32;;;53.38;;
6422;SDS011;3244;42.708;23.288;2024-01-15T01:11:13;140.02;;;56.50;;
6422;SDS011;3244;42.708;23.288;2024-01-15T01:13:41;129.38;;;54.65;;
6422;SDS011;3244;42.708;23.288;2024-01-15T01:16:08;128.25;;;54.00;;
6422;SDS011;3244;42.708;23.288;2024-01-15T01:18:35;145.18;;;58.08;;
6422;SDS011;3244;42.708;23.288;2024-01-15T01:21:01;153.07;;;57.42;;
6422;SDS011;3244;42.708;23.288;2024-01-15T01:23:28;122.18;;;52.60;;
6422;SDS011;3244;42.708;23.288;2024-01-15T01:25:55;138.33;;;57.20;;
6422;SDS011;3244;42.708;23.288;2024-01-15T01:28:21;137.65;;;58.78;;
6422;SDS011;3244;42.708;23.288;2024-01-15T01:30:50;146.60;;;58.70;;
6422;SDS011;3244;42.708;23.288;2024-01-15T01:33:18;136.45;;;54.00;;
6422;SDS011;3244;42.708;23.288;2024-01-15T01:35:45;122.15;;;51.80;;
6422;SDS011;3244;42.708;23.288;2024-01-15T01:38:12;131.70;;;55.55;;
6422;SDS011;3244;42.708;23.288;2024-01-15T01:40:38;135.02;;;57.17;;
6422;SDS011;3244;42.708;23.288;2024-01-15T01:43:05;146.82;;;55.47;;
6422;SDS011;3244;42.708;23.288;2024-01-15T01:45:32;142.13;;;55.67;;
6422;SDS011;3244;42.708;23.288;2024-01-15T01:48:00;126.05;;;53.15;;
6422;SDS011;3244;42.708;23.288;2024-01-15T01:50:27;128.70;;;54.63;;
6422;SDS011;3244;42.708;23.288;2024-01-15T01:52:56;151.18;;;53.95;;
6422;SDS011;3244;42.708;23.288;2024-01-15T01:55:24;139.40;;;53.50;;
6422;SDS011;3244;42.708;23.288;2024-01-15T01:57:54;139.18;;;56.58;;
6422;SDS011;3244;42.708;23.288;2024-01-15T02:00:21;124.68;;;52.45;;
6422;SDS011;3244;42.708;23.288;2024-01-15T02:02:48;122.32;;;51.80;;
6422;SDS011;3244;42.708;23.288;2024-01-15T02:05:18;132.25;;;55.40;;
6422;SDS011;3244;42.708;23.288;2024-01-15T02:07:47;142.50;;;56.03;;
6422;SDS011;3244;42.708;23.288;2024-01-15T02:10:13;142.40;;;55.33;;
6422;SDS011;3244;42.708;23.288;2024-01-15T02:12:40;141.55;;;52.58;;
6422;SDS011;3244;42.708;23.288;2024-01-15T02:15:08;122.38;;;53.55;;
6422;SDS011;3244;42.708;23.288;2024-01-15T02:17:35;132.80;;;52.72;;
6422;SDS011;3244;42.708;23.288;2024-01-15T02:20:23;140.23;;;52.42;;
6422;SDS011;3244;42.708;23.288;2024-01-15T02:22:50;131.70;;;53.40;;
6422;SDS011;3244;42.708;23.288;2024-01-15T02:25:18;126.10;;;55.67;;
6422;SDS011;3244;42.708;23.288;2024-01-15T02:27:45;118.65;;;51.10;;
6422;SDS011;3244;42.708;23.288;2024-01-15T02:30:12;135.70;;;54.25;;
6422;SDS011;3244;42.708;23.288;2024-01-15T02:32:39;147.82;;;59.85;;
6422;SDS011;3244;42.708;23.288;2024-01-15T02:35:06;142.35;;;58.03;;
6422;SDS011;3244;42.708;23.288;2024-01-15T02:37:33;156.60;;;59.67;;
6422;SDS011;3244;42.708;23.288;2024-01-15T02:39:59;157.70;;;59.22;;
6422;SDS011;3244;42.708;23.288;2024-01-15T02:42:27;134.60;;;53.07;;
6422;SDS011;3244;42.708;23.288;2024-01-15T02:44:54;124.10;;;53.85;;
6422;SDS011;3244;42.708;23.288;2024-01-15T02:47:21;120.57;;;52.13;;
6422;SDS011;3244;42.708;23.288;2024-01-15T02:49:47;133.43;;;54.08;;
6422;SDS011;3244;42.708;23.288;2024-01-15T02:52:14;127.82;;;52.90;;
6422;SDS011;3244;42.708;23.288;2024-01-15T02:54:40;128.52;;;52.45;;
6422;SDS011;3244;42.708;23.288;2024-01-15T02:57:07;118.55;;;49.47;;
6422;SDS011;3244;42.708;23.288;2024-01-15T02:59:35;129.63;;;52.28;;
6422;SDS011;3244;42.708;23.288;2024-01-15T03:02:02;121.72;;;55.90;;
6422;SDS011;3244;42.708;23.288;2024-01-15T03:04:29;126.18;;;53.28;;
6422;SDS011;3244;42.708;23.288;2024-01-15T03:06:55;126.25;;;50.17;;
6422;SDS011;3244;42.708;23.288;2024-01-15T03:09:22;141.63;;;53.45;;
6422;SDS011;3244;42.708;23.288;2024-01-15T03:11:48;127.63;;;54.30;;
6422;SDS011;3244;42.708;23.288;2024-01-15T03:14:15;135.13;;;53.78;;
6422;SDS011;3244;42.708;23.288;2024-01-15T03:16:43;136.05;;;54.28;;
6422;SDS011;3244;42.708;23.288;2024-01-15T03:19:09;123.38;;;53.10;;
6422;SDS011;3244;42.708;23.288;2024-01-15T03:21:36;139.05;;;58.42;;
6422;SDS011;3244;42.708;23.288;2024-01-15T03:24:02;139.73;;;54.03;;
6422;SDS011;3244;42.708;23.288;2024-01-15T03:26:29;129.73;;;54.17;;
6422;SDS011;3244;42.708;23.288;2024-01-15T03:28:56;142.20;;;57.25;;
6422;SDS011;3244;42.708;23.288;2024-01-15T03:31:23;141.35;;;55.58;;
6422;SDS011;3244;42.708;23.288;2024-01-15T03:33:51;139.75;;;57.72;;
6422;SDS011;3244;42.708;23.288;2024-01-15T03:36:17;152.70;;;59.10;;
6422;SDS011;3244;42.708;23.288;2024-01-15T03:38:44;137.52;;;57.28;;
6422;SDS011;3244;42.708;23.288;2024-01-15T03:41:10;146.68;;;60.97;;
6422;SDS011;3244;42.708;23.288;2024-01-15T03:43:37;148.60;;;63.53;;
6422;SDS011;3244;42.708;23.288;2024-01-15T03:46:04;174.65;;;67.35;;
6422;SDS011;3244;42.708;23.288;2024-01-15T03:48:31;176.75;;;70.35;;
6422;SDS011;3244;42.708;23.288;2024-01-15T03:50:59;168.27;;;69.30;;
6422;SDS011;3244;42.708;23.288;2024-01-15T03:53:26;154.30;;;66.40;;
6422;SDS011;3244;42.708;23.288;2024-01-15T03:55:52;146.50;;;64.90;;
6422;SDS011;3244;42.708;23.288;2024-01-15T03:58:19;154.23;;;63.42;;
6422;SDS011;3244;42.708;23.288;2024-01-15T04:00:46;150.73;;;59.83;;
6422;SDS011;3244;42.708;23.288;2024-01-15T04:03:12;142.90;;;59.00;;
6422;SDS011;3244;42.708;23.288;2024-01-15T04:05:39;134.48;;;54.55;;
6422;SDS011;3244;42.708;23.288;2024-01-15T04:08:07;146.90;;;57.28;;
6422;SDS011;3244;42.708;23.288;2024-01-15T04:10:33;133.80;;;57.92;;
6422;SDS011;3244;42.708;23.288;2024-01-15T04:13:00;130.95;;;55.17;;
6422;SDS011;3244;42.708;23.288;2024-01-15T04:15:28;132.82;;;53.97;;
6422;SDS011;3244;42.708;23.288;2024-01-15T04:17:55;133.80;;;56.28;;
6422;SDS011;3244;42.708;23.288;2024-01-15T04:20:21;143.27;;;55.53;;
6422;SDS011;3244;42.708;23.288;2024-01-15T04:22:48;132.75;;;54.72;;
6422;SDS011;3244;42.708;23.288;2024-01-15T04:25:16;121.97;;;52.15;;
6422;SDS011;3244;42.708;23.288;2024-01-15T04:27:42;139.15;;;54.65;;
6422;SDS011;3244;42.708;23.288;2024-01-15T04:30:09;116.28;;;53.13;;
6422;SDS011;3244;42.708;23.288;2024-01-15T04:32:36;119.68;;;50.33;;
6422;SDS011;3244;42.708;23.288;2024-01-15T04:35:03;109.70;;;48.60;;
6422;SDS011;3244;42.708;23.288;2024-01-15T04:37:30;115.32;;;49.22;;
6422;SDS011;3244;42.708;23.288;2024-01-15T04:39:57;111.07;;;49.70;;
6422;SDS011;3244;42.708;23.288;2024-01-15T04:42:25;138.68;;;50.35;;
6422;SDS011;3244;42.708;23.288;2024-01-15T04:44:51;117.50;;;48.10;;
6422;SDS011;3244;42.708;23.288;2024-01-15T04:47:18;105.05;;;47.70;;
6422;SDS011;3244;42.708;23.288;2024-01-15T04:49:44;111.10;;;51.75;;
6422;SDS011;3244;42.708;23.288;2024-01-15T04:52:11;101.45;;;44.15;;
6422;SDS011;3244;42.708;23.288;2024-01-15T04:54:37;110.85;;;45.60;;
6422;SDS011;3244;42.708;23.288;2024-01-15T04:57:04;122.85;;;47.50;;
6422;SDS011;3244;42.708;23.288;2024-01-15T04:59:32;102.68;;;48.22;;
6422;SDS011;3244;42.708;23.288;2024-01-15T05:01:59;114.80;;;47.45;;
6422;SDS011;3244;42.708;23.288;2024-01-15T05:04:25;102.93;;;44.75;;
6422;SDS011;3244;42.708;23.288;2024-01-15T05:06:53;119.50;;;47.53;;
6422;SDS011;3244;42.708;23.288;2024-01-15T05:09:19;109.53;;;45.20;;
6422;SDS011;3244;42.708;23.288;2024-01-15T05:11:46;94.68;;;46.17;;
6422;SDS011;3244;42.708;23.288;2024-01-15T05:14:13;113.65;;;48.60;;
6422;SDS011;3244;42.708;23.288;2024-01-15T05:16:44;111.57;;;45.85;;
6422;SDS011;3244;42.708;23.288;2024-01-15T05:19:13;107.68;;;45.10;;
6422;SDS011;3244;42.708;23.288;2024-01-15T05:21:39;110.78;;;50.50;;
6422;SDS011;3244;42.708;23.288;2024-01-15T05:24:06;193.52;;;70.38;;
6422;SDS011;3244;42.708;23.288;2024-01-15T05:26:34;232.00;;;86.05;;
6422;SDS011;3244;42.708;23.288;2024-01-15T05:29:00;205.60;;;71.50;;
6422;SDS011;3244;42.708;23.288;2024-01-15T05:31:27;219.18;;;76.70;;
6422;SDS011;3244;42.708;23.288;2024-01-15T05:33:55;205.40;;;78.40;;
6422;SDS011;3244;42.708;23.288;2024-01-15T05:36:21;169.38;;;65.63;;
6422;SDS011;3244;42.708;23.288;2024-01-15T05:38:48;153.52;;;62.35;;
6422;SDS011;3244;42.708;23.288;2024-01-15T05:41:15;158.20;;;61.67;;
6422;SDS011;3244;42.708;23.288;2024-01-15T05:43:41;162.32;;;61.78;;
6422;SDS011;3244;42.708;23.288;2024-01-15T05:46:08;156.13;;;58.70;;
6422;SDS011;3244;42.708;23.288;2024-01-15T05:48:35;161.77;;;59.28;;
6422;SDS011;3244;42.708;23.288;2024-01-15T05:51:02;135.53;;;50.70;;
6422;SDS011;3244;42.708;23.288;2024-01-15T05:53:29;177.43;;;66.82;;
6422;SDS011;3244;42.708;23.288;2024-01-15T05:55:56;144.80;;;55.93;;
6422;SDS011;3244;42.708;23.288;2024-01-15T05:58:22;161.38;;;56.55;;
6422;SDS011;3244;42.708;23.288;2024-01-15T06:00:49;144.75;;;56.97;;
6422;SDS011;3244;42.708;23.288;2024-01-15T06:03:16;133.13;;;54.15;;
6422;SDS011;3244;42.708;23.288;2024-01-15T06:05:42;139.07;;;54.92;;
6422;SDS011;3244;42.708;23.288;2024-01-15T06:08:10;142.68;;;52.95;;
6422;SDS011;3244;42.708;23.288;2024-01-15T06:10:37;126.60;;;53.00;;
6422;SDS011;3244;42.708;23.288;2024-01-15T06:13:03;129.73;;;55.83;;
6422;SDS011;3244;42.708;23.288;2024-01-15T06:15:30;141.63;;;56.88;;
6422;SDS011;3244;42.708;23.288;2024-01-15T06:17:57;109.40;;;50.78;;
6422;SDS011;3244;42.708;23.288;2024-01-15T06:20:23;114.80;;;50.45;;
6422;SDS011;3244;42.708;23.288;2024-01-15T06:22:50;124.60;;;49.95;;
6422;SDS011;3244;42.708;23.288;2024-01-15T06:25:18;117.70;;;50.67;;
6422;SDS011;3244;42.708;23.288;2024-01-15T06:27:45;106.15;;;47.60;;
6422;SDS011;3244;42.708;23.288;2024-01-15T06:30:11;106.93;;;48.42;;
6422;SDS011;3244;42.708;23.288;2024-01-15T06:32:39;126.95;;;49.50;;
6422;SDS011;3244;42.708;23.288;2024-01-15T06:35:05;115.65;;;47.85;;
6422;SDS011;3244;42.708;23.288;2024-01-15T06:37:32;119.70;;;48.35;;
6422;SDS011;3244;42.708;23.288;2024-01-15T06:39:59;113.00;;;46.05;;
6422;SDS011;3244;42.708;23.288;2024-01-15T06:42:27;99.03;;;45.92;;
6422;SDS011;3244;42.708;23.288;2024-01-15T06:44:54;103.78;;;47.95;;
6422;SDS011;3244;42.708;23.288;2024-01-15T06:47:20;107.95;;;46.00;;
6422;SDS011;3244;42.708;23.288;2024-01-15T06:49:47;103.72;;;46.00;;
6422;SDS011;3244;42.708;23.288;2024-01-15T06:52:15;104.93;;;48.33;;
6422;SDS011;3244;42.708;23.288;2024-01-15T06:54:42;107.90;;;46.00;;
6422;SDS011;3244;42.708;23.288;2024-01-15T06:57:08;100.00;;;45.60;;
6422;SDS011;3244;42.708;23.288;2024-01-15T06:59:36;103.63;;;46.35;;
6422;SDS011;3244;42.708;23.288;2024-01-15T07:02:03;98.88;;;47.05;;
6422;SDS011;3244;42.708;23.288;2024-01-15T07:04:30;101.43;;;44.92;;
6422;SDS011;3244;42.708;23.288;2024-01-15T07:06:56;93.55;;;43.80;;
6422;SDS011;3244;42.708;23.288;2024-01-15T07:09:23;92.43;;;41.88;;
6422;SDS011;3244;42.708;23.288;2024-01-15T07:11:50;98.18;;;44.40;;
6422;SDS011;3244;42.708;23.288;2024-01-15T07:14:16;97.90;;;43.40;;
6422;SDS011;3244;42.708;23.288;2024-01-15T07:16:44;95.32;;;43.90;;
6422;SDS011;3244;42.708;23.288;2024-01-15T07:19:11;94.22;;;44.55;;
6422;SDS011;3244;42.708;23.288;2024-01-15T07:21:38;86.13;;;43.60;;
6422;SDS011;3244;42.708;23.288;2024-01-15T07:24:05;86.50;;;42.45;;
6422;SDS011;3244;42.708;23.288;2024-01-15T07:26:32;85.20;;;42.45;;
6422;SDS011;3244;42.708;23.288;2024-01-15T07:28:58;99.05;;;44.13;;
6422;SDS011;3244;42.708;23.288;2024-01-15T07:31:25;94.95;;;45.47;;
6422;SDS011;3244;42.708;23.288;2024-01-15T07:33:54;96.65;;;43.63;;
6422;SDS011;3244;42.708;23.288;2024-01-15T07:36:20;96.45;;;46.97;;
6422;SDS011;3244;42.708;23.288;2024-01-15T07:38:47;95.25;;;47.50;;
6422;SDS011;3244;42.708;23.288;2024-01-15T07:41:14;105.10;;;46.63;;
6422;SDS011;3244;42.708;23.288;2024-01-15T07:43:40;96.55;;;45.95;;
6422;SDS011;3244;42.708;23.288;2024-01-15T07:46:07;97.97;;;47.90;;
6422;SDS011;3244;42.708;23.288;2024-01-15T07:48:33;95.65;;;44.63;;
6422;SDS011;3244;42.708;23.288;2024-01-15T07:51:02;108.35;;;46.40;;
6422;SDS011;3244;42.708;23.288;2024-01-15T07:53:29;94.53;;;46.58;;
6422;SDS011;3244;42.708;23.288;2024-01-15T07:55:55;91.53;;;43.47;;
6422;SDS011;3244;42.708;23.288;2024-01-15T07:58:22;109.85;;;46.92;;
6422;SDS011;3244;42.708;23.288;2024-01-15T08:00:49;87.38;;;39.35;;
6422;SDS011;3244;42.708;23.288;2024-01-15T08:03:16;91.68;;;43.83;;
6422;SDS011;3244;42.708;23.288;2024-01-15T08:05:42;86.22;;;41.47;;
6422;SDS011;3244;42.708;23.288;2024-01-15T08:08:10;92.75;;;44.35;;
6422;SDS011;3244;42.708;23.288;2024-01-15T08:10:37;100.97;;;41.97;;
6422;SDS011;3244;42.708;23.288;2024-01-15T08:13:04;108.40;;;50.08;;
6422;SDS011;3244;42.708;23.288;2024-01-15T08:15:33;114.05;;;55.67;;
6422;SDS011;3244;42.708;23.288;2024-01-15T08:17:59;141.68;;;65.65;;
6422;SDS011;3244;42.708;23.288;2024-01-15T08:20:26;151.23;;;70.13;;
6422;SDS011;3244;42.708;23.288;2024-01-15T08:22:52;139.48;;;65.22;;
6422;SDS011;3244;42.708;23.288;2024-01-15T08:25:20;153.65;;;69.68;;
6422;SDS011;3244;42.708;23.288;2024-01-15T08:27:47;142.90;;;67.32;;
6422;SDS011;3244;42.708;23.288;2024-01-15T08:30:14;127.10;;;60.05;;
6422;SDS011;3244;42.708;23.288;2024-01-15T08:32:41;137.60;;;61.38;;
6422;SDS011;3244;42.708;23.288;2024-01-15T08:35:07;122.90;;;56.33;;
6422;SDS011;3244;42.708;23.288;2024-01-15T08:37:34;130.43;;;59.60;;
6422;SDS011;3244;42.708;23.288;2024-01-15T08:40:00;125.05;;;57.50;;
6422;SDS011;3244;42.708;23.288;2024-01-15T08:42:30;115.72;;;55.47;;
6422;SDS011;3244;42.708;23.288;2024-01-15T08:44:56;114.65;;;52.78;;
6422;SDS011;3244;42.708;23.288;2024-01-15T08:47:23;126.60;;;56.95;;
6422;SDS011;3244;42.708;23.288;2024-01-15T08:49:50;129.15;;;61.85;;
6422;SDS011;3244;42.708;23.288;2024-01-15T08:52:17;144.80;;;68.30;;
6422;SDS011;3244;42.708;23.288;2024-01-15T08:54:45;141.18;;;63.20;;
6422;SDS011;3244;42.708;23.288;2024-01-15T08:57:11;146.10;;;66.10;;
6422;SDS011;3244;42.708;23.288;2024-01-15T08:59:39;140.57;;;66.90;;
6422;SDS011;3244;42.708;23.288;2024-01-15T09:02:07;139.65;;;64.85;;
6422;SDS011;3244;42.708;23.288;2024-01-15T09:04:34;132.18;;;61.05;;
6422;SDS011;3244;42.708;23.288;2024-01-15T09:07:00;136.05;;;62.13;;
6422;SDS011;3244;42.708;23.288;2024-01-15T09:09:27;123.68;;;57.78;;
6422;SDS011;3244;42.708;23.288;2024-01-15T09:11:54;123.05;;;54.80;;
6422;SDS011;3244;42.708;23.288;2024-01-15T09:14:20;106.40;;;52.30;;
6422;SDS011;3244;42.708;23.288;2024-01-15T09:16:48;108.35;;;51.00;;
6422;SDS011;3244;42.708;23.288;2024-01-15T09:19:15;102.68;;;48.45;;
6422;SDS011;3244;42.708;23.288;2024-01-15T09:21:42;99.18;;;47.72;;
6422;SDS011;3244;42.708;23.288;2024-01-15T09:24:08;102.22;;;48.97;;
6422;SDS011;3244;42.708;23.288;2024-01-15T09:26:35;108.45;;;48.75;;
6422;SDS011;3244;42.708;23.288;2024-01-15T09:29:01;102.93;;;48.00;;
6422;SDS011;3244;42.708;23.288;2024-01-15T09:31:29;124.40;;;55.38;;
6422;SDS011;3244;42.708;23.288;2024-01-15T09:33:57;135.55;;;60.03;;
6422;SDS011;3244;42.708;23.288;2024-01-15T09:36:25;152.73;;;70.22;;
6422;SDS011;3244;42.708;23.288;2024-01-15T09:38:52;167.85;;;72.72;;
6422;SDS011;3244;42.708;23.288;2024-01-15T09:41:18;156.77;;;73.38;;
6422;SDS011;3244;42.708;23.288;2024-01-15T09:43:45;142.43;;;72.35;;
6422;SDS011;3244;42.708;23.288;2024-01-15T09:46:12;144.73;;;71.18;;
6422;SDS011;3244;42.708;23.288;2024-01-15T09:48:39;151.70;;;70.25;;
6422;SDS011;3244;42.708;23.288;2024-01-15T09:51:07;150.55;;;71.20;;
6422;SDS011;3244;42.708;23.288;2024-01-15T09:53:35;145.88;;;70.10;;
6422;SDS011;3244;42.708;23.288;2024-01-15T09:56:03;127.75;;;60.65;;
6422;SDS011;3244;42.708;23.288;2024-01-15T09:58:31;112.93;;;53.88;;
6422;SDS011;3244;42.708;23.288;2024-01-15T10:00:59;116.93;;;51.08;;
6422;SDS011;3244;42.708;23.288;2024-01-15T10:03:28;112.72;;;55.55;;
6422;SDS011;3244;42.708;23.288;2024-01-15T10:05:54;115.93;;;54.58;;
6422;SDS011;3244;42.708;23.288;2024-01-15T10:08:25;113.38;;;51.65;;
6422;SDS011;3244;42.708;23.288;2024-01-15T10:10:52;97.18;;;47.00;;
6422;SDS011;3244;42.708;23.288;2024-01-15T10:13:19;94.70;;;46.30;;
6422;SDS011;3244;42.708;23.288;2024-01-15T10:15:46;89.93;;;42.60;;
6422;SDS011;3244;42.708;23.288;2024-01-15T10:18:13;76.95;;;39.75;;
6422;SDS011;3244;42.708;23.288;2024-01-15T10:20:40;82.32;;;38.00;;
6422;SDS011;3244;42.708;23.288;2024-01-15T10:23:07;80.38;;;38.08;;
6422;SDS011;3244;42.708;23.288;2024-01-15T10:25:36;77.82;;;38.55;;
6422;SDS011;3244;42.708;23.288;2024-01-15T10:28:03;71.88;;;35.10;;
6422;SDS011;3244;42.708;23.288;2024-01-15T10:30:31;63.78;;;31.20;;
6422;SDS011;3244;42.708;23.288;2024-01-15T10:32:59;59.72;;;30.83;;
6422;SDS011;3244;42.708;23.288;2024-01-15T10:35:27;62.05;;;28.73;;
6422;SDS011;3244;42.708;23.288;2024-01-15T10:37:54;53.65;;;27.25;;
6422;SDS011;3244;42.708;23.288;2024-01-15T10:40:21;58.70;;;27.77;;
6422;SDS011;3244;42.708;23.288;2024-01-15T10:42:49;63.30;;;28.02;;
6422;SDS011;3244;42.708;23.288;2024-01-15T10:45:15;65.88;;;28.50;;
6422;SDS011;3244;42.708;23.288;2024-01-15T10:47:42;59.33;;;28.85;;
6422;SDS011;3244;42.708;23.288;2024-01-15T10:50:09;68.43;;;30.90;;
6422;SDS011;3244;42.708;23.288;2024-01-15T10:52:36;48.67;;;27.70;;
6422;SDS011;3244;42.708;23.288;2024-01-15T10:55:05;56.70;;;27.70;;
6422;SDS011;3244;42.708;23.288;2024-01-15T10:57:34;53.88;;;24.75;;
6422;SDS011;3244;42.708;23.288;2024-01-15T11:00:02;48.80;;;27.42;;
6422;SDS011;3244;42.708;23.288;2024-01-15T11:02:30;63.25;;;27.95;;
6422;SDS011;3244;42.708;23.288;2024-01-15T11:04:59;53.40;;;28.70;;
6422;SDS011;3244;42.708;23.288;2024-01-15T11:07:25;51.83;;;26.40;;
6422;SDS011;3244;42.708;23.288;2024-01-15T11:09:52;45.92;;;26.13;;
6422;SDS011;3244;42.708;23.288;2024-01-15T11:12:19;48.85;;;26.67;;
6422;SDS011;3244;42.708;23.288;2024-01-15T11:14:46;44.25;;;25.27;;
6422;SDS011;3244;42.708;23.288;2024-01-15T11:17:15;50.83;;;26.85;;
6422;SDS011;3244;42.708;23.288;2024-01-15T11:19:44;50.13;;;26.90;;
6422;SDS011;3244;42.708;23.288;2024-01-15T11:25:12;51.25;;;25.42;;
6422;SDS011;3244;42.708;23.288;2024-01-15T11:27:40;51.50;;;24.08;;
6422;SDS011;3244;42.708;23.288;2024-01-15T11:30:08;49.25;;;25.45;;
6422;SDS011;3244;42.708;23.288;2024-01-15T11:32:37;38.50;;;20.30;;
6422;SDS011;3244;42.708;23.288;2024-01-15T11:35:06;35.38;;;20.40;;
6422;SDS011;3244;42.708;23.288;2024-01-15T11:40:17;36.00;;;17.13;;
6422;SDS011;3244;42.708;23.288;2024-01-15T11:42:44;31.42;;;16.92;;
6422;SDS011;3244;42.708;23.288;2024-01-15T11:45:11;36.75;;;14.82;;
6422;SDS011;3244;42.708;23.288;2024-01-15T11:47:58;28.30;;;15.63;;
6422;SDS011;3244;42.708;23.288;2024-01-15T11:50:35;32.03;;;17.30;;
6422;SDS011;3244;42.708;23.288;2024-01-15T11:53:08;26.77;;;15.30;;
6422;SDS011;3244;42.708;23.288;2024-01-15T11:55:53;35.22;;;16.42;;
6422;SDS011;3244;42.708;23.288;2024-01-15T11:58:24;30.45;;;16.85;;
6422;SDS011;3244;42.708;23.288;2024-01-15T12:00:52;29.13;;;16.27;;
6422;SDS011;3244;42.708;23.288;2024-01-15T12:03:21;29.00;;;16.60;;
6422;SDS011;3244;42.708;23.288;2024-01-15T12:05:48;33.08;;;16.70;;
6422;SDS011;3244;42.708;23.288;2024-01-15T12:08:20;33.28;;;17.73;;
6422;SDS011;3244;42.708;23.288;2024-01-15T12:10:47;31.58;;;16.45;;
6422;SDS011;3244;42.708;23.288;2024-01-15T12:13:14;31.23;;;18.08;;
6422;SDS011;3244;42.708;23.288;2024-01-15T12:15:43;30.88;;;17.38;;
6422;SDS011;3244;42.708;23.288;2024-01-15T12:18:11;41.30;;;17.88;;
6422;SDS011;3244;42.708;23.288;2024-01-15T12:20:40;32.88;;;17.73;;
6422;SDS011;3244;42.708;23.288;2024-01-15T12:23:08;36.83;;;18.10;;
6422;SDS011;3244;42.708;23.288;2024-01-15T12:25:36;31.73;;;18.35;;
6422;SDS011;3244;42.708;23.288;2024-01-15T12:28:03;44.38;;;19.33;;
6422;SDS011;3244;42.708;23.288;2024-01-15T12:30:32;31.17;;;18.00;;
6422;SDS011;3244;42.708;23.288;2024-01-15T12:33:01;39.95;;;16.98;;
6422;SDS011;3244;42.708;23.288;2024-01-15T12:35:29;43.55;;;16.30;;
6422;SDS011;3244;42.708;23.288;2024-01-15T12:37:59;40.47;;;18.00;;
6422;SDS011;3244;42.708;23.288;2024-01-15T12:40:27;38.95;;;17.13;;
6422;SDS011;3244;42.708;23.288;2024-01-15T12:42:54;27.70;;;16.20;;
6422;SDS011;3244;42.708;23.288;2024-01-15T12:45:31;29.40;;;17.70;;
6422;SDS011;3244;42.708;23.288;2024-01-15T12:48:00;29.70;;;14.88;;
6422;SDS011;3244;42.708;23.288;2024-01-15T12:50:28;37.47;;;17.25;;
6422;SDS011;3244;42.708;23.288;2024-01-15T12:52:55;29.95;;;16.10;;
6422;SDS011;3244;42.708;23.288;2024-01-15T12:55:21;31.60;;;17.08;;
6422;SDS011;3244;42.708;23.288;2024-01-15T12:57:48;32.72;;;17.23;;
6422;SDS011;3244;42.708;23.288;2024-01-15T13:00:17;30.25;;;15.88;;
6422;SDS011;3244;42.708;23.288;2024-01-15T13:02:45;31.77;;;17.55;;
6422;SDS011;3244;42.708;23.288;2024-01-15T13:05:12;31.50;;;18.60;;
6422;SDS011;3244;42.708;23.288;2024-01-15T13:07:39;43.90;;;18.63;;
6422;SDS011;3244;42.708;23.288;2024-01-15T13:10:06;29.77;;;16.75;;
6422;SDS011;3244;42.708;23.288;2024-01-15T13:12:34;45.80;;;19.02;;
6422;SDS011;3244;42.708;23.288;2024-01-15T13:15:00;41.75;;;19.58;;
6422;SDS011;3244;42.708;23.288;2024-01-15T13:17:28;29.58;;;16.83;;
6422;SDS011;3244;42.708;23.288;2024-01-15T13:19:56;44.22;;;19.60;;
6422;SDS011;3244;42.708;23.288;2024-01-15T13:22:23;39.17;;;19.42;;
6422;SDS011;3244;42.708;23.288;2024-01-15T13:24:54;29.63;;;17.35;;
6422;SDS011;3244;42.708;23.288;2024-01-15T13:27:21;36.70;;;17.88;;
6422;SDS011;3244;42.708;23.288;2024-01-15T13:29:48;33.45;;;18.40;;
6422;SDS011;3244;42.708;23.288;2024-01-15T13:32:15;34.45;;;17.30;;
6422;SDS011;3244;42.708;23.288;2024-01-15T13:34:48;33.83;;;17.98;;
6422;SDS011;3244;42.708;23.288;2024-01-15T13:37:17;35.45;;;17.75;;
6422;SDS011;3244;42.708;23.288;2024-01-15T13:39:43;36.25;;;17.48;;
6422;SDS011;3244;42.708;23.288;2024-01-15T13:42:10;41.25;;;17.77;;
6422;SDS011;3244;42.708;23.288;2024-01-15T13:44:37;37.58;;;17.95;;
6422;SDS011;3244;42.708;23.288;2024-01-15T13:47:04;40.00;;;17.77;;
6422;SDS011;3244;42.708;23.288;2024-01-15T13:49:31;37.90;;;18.75;;
6422;SDS011;3244;42.708;23.288;2024-01-15T13:51:59;36.30;;;18.02;;
6422;SDS011;3244;42.708;23.288;2024-01-15T13:54:27;34.30;;;18.50;;
6422;SDS011;3244;42.708;23.288;2024-01-15T13:56:53;36.03;;;17.23;;
6422;SDS011;3244;42.708;23.288;2024-01-15T13:59:20;37.08;;;17.88;;
6422;SDS011;3244;42.708;23.288;2024-01-15T14:01:47;33.50;;;17.73;;
6422;SDS011;3244;42.708;23.288;2024-01-15T14:04:13;44.38;;;19.35;;
6422;SDS011;3244;42.708;23.288;2024-01-15T14:06:40;31.92;;;16.70;;
6422;SDS011;3244;42.708;23.288;2024-01-15T14:09:07;34.47;;;17.10;;
6422;SDS011;3244;42.708;23.288;2024-01-15T14:11:36;38.90;;;16.92;;
6422;SDS011;3244;42.708;23.288;2024-01-15T14:14:03;33.35;;;18.13;;
6422;SDS011;3244;42.708;23.288;2024-01-15T14:16:30;32.05;;;18.30;;
6422;SDS011;3244;42.708;23.288;2024-01-15T14:18:56;47.22;;;20.05;;
6422;SDS011;3244;42.708;23.288;2024-01-15T14:21:23;53.75;;;20.77;;
6422;SDS011;3244;42.708;23.288;2024-01-15T14:23:49;35.10;;;18.33;;
6422;SDS011;3244;42.708;23.288;2024-01-15T14:26:16;41.30;;;18.88;;
6422;SDS011;3244;42.708;23.288;2024-01-15T14:28:44;32.80;;;16.67;;
6422;SDS011;3244;42.708;23.288;2024-01-15T14:31:11;40.83;;;18.67;;